Bei Facebook empfehlenBei Twitter postenGoogle plusPinterest

Das Wetter im Erzgebirge am 13.07.2015

Wetter und Klima am 13.07.2015 Holzhau im Erzgebirge (630m ü.NN)
Letzte gemessene Temperatur und Uhrzeit der Messung23:45:00 Uhr13.60 °C
Temperatur (Maximum / Höchstwert) und Uhrzeit der Messung15:45:00 Uhr17.80 °C
Temperatur (Minimum / Tiefstwert) und Uhrzeit der Messung05:45:0011.60 °C
Errechneter Absolutwert der Temperaturschwankungen zwischen Tmin und Tmax des Tages6.20 K
Errechnete Tagesmitteltemperatur14.08438 °C
Gesamt - Niederschlag des Tages (in flüssiger Form)2.59 Liter / m²
Luftdruck (Maximum / Höchstwert) und Zeitpunkt der Messung00:15:00 Uhr1015.90 hPa
Luftdruck (Minimum / Tiefstwert) und Zeitpunkt der Messung07:00:00 Uhr1014.40 hPa
Errechneter Absolutwert der Luftdruckschwankungen des Tages1.50 hPa
Höchste gemessene Windgeschwindigkeit und Uhrzeit der Messung00:30:00 Uhr8.64 km/h
Errechnete Windhäufigkeit in Relation zu den Messwerten des Tages2.08333 %
Niedrigste Windkühle (Windchill) und Zeitpunkt der Messung05:45:00 Uhr11.60 °C
Taupunkt (Maximum / Höchstwert) und Uhrzeit der Messung12:30:00 Uhr14.60 °C
Taupunkt (Minimum / Tiefstwert) und Uhrzeit der Messung05:45:0010.30 °C
Anzahl der automatisch eingelesenen Messwerte 96

Detaillierte Wetter- und Klima- Messwerte für den 13.07.2015 in Holzhau im Erzgebirge (630m ü.NN)
ZeitTemperaturLuftdruckRel. LuftfeuchteWindWindrichtungWindchillTaupunktNiederschlag l/m²
23:45:0013.60 °C1014.50 hPa89.00 %11.80 °C2.59
23:30:0013.60 °C1014.60 hPa89.00 %11.80 °C2.59
23:15:0013.60 °C1014.80 hPa89.00 %11.80 °C2.59
23:00:0013.60 °C1014.70 hPa89.00 %11.80 °C2.59
22:45:0013.50 °C1014.60 hPa88.00 %11.60 °C2.59
22:30:0013.60 °C1014.80 hPa88.00 %11.70 °C2.59
22:15:0013.80 °C1014.90 hPa87.00 %11.70 °C2.59
22:00:0014.10 °C1014.90 hPa86.00 %11.80 °C2.59
21:45:0014.20 °C1014.80 hPa86.00 %11.90 °C2.59
21:30:0014.30 °C1014.70 hPa85.00 %11.80 °C2.59
21:15:0014.40 °C1014.50 hPa84.00 %11.70 °C2.59
21:00:0014.40 °C1014.60 hPa84.00 %11.70 °C2.59
20:45:0014.60 °C1014.50 hPa83.00 %11.70 °C2.59
20:30:0014.80 °C1014.60 hPa82.00 %11.80 °C2.59
20:15:0015.10 °C1014.80 hPa82.00 %12.10 °C2.59
20:00:0015.40 °C1014.70 hPa81.00 %12.20 °C2.59
19:45:0015.80 °C1014.70 hPa80.00 %12.40 °C2.59
19:30:0016.10 °C1014.80 hPa79.00 %12.50 °C2.59
19:15:0016.50 °C1014.70 hPa78.00 %12.70 °C2.59
19:00:0016.90 °C1014.60 hPa77.00 %12.80 °C2.59
18:45:0017.30 °C1014.80 hPa76.00 %13.00 °C2.59
18:30:0017.60 °C1014.60 hPa75.00 %13.10 °C2.59
18:15:0017.60 °C1014.70 hPa76.00 %13.30 °C2.59
18:00:0017.20 °C1014.90 hPa78.00 %13.30 °C2.59
17:45:0016.90 °C1015.00 hPa77.00 %12.80 °C2.59
17:30:0016.90 °C1015.10 hPa78.00 %13.00 °C2.59
17:15:0016.90 °C1015.10 hPa78.00 %13.00 °C2.59
17:00:0017.00 °C1015.10 hPa77.00 %12.90 °C2.59
16:45:0017.20 °C1015.10 hPa77.00 %13.10 °C2.59
16:30:0017.30 °C1015.10 hPa78.00 %13.40 °C2.59
16:15:0017.10 °C1015.10 hPa77.00 %13.00 °C2.59
16:00:0017.60 °C1015.10 hPa77.00 %13.50 °C2.59
15:45:0017.80 °C1015.00 hPa78.00 %13.90 °C2.59
15:30:0017.40 °C1015.00 hPa82.00 %14.30 °C2.59
15:15:0016.90 °C1015.10 hPa82.00 %13.80 °C2.59
15:00:0016.60 °C1015.30 hPa83.00 %13.70 °C2.59
14:45:0016.10 °C1015.40 hPa83.00 %13.20 °C2.59
14:30:0016.00 °C1015.60 hPa83.00 %13.10 °C2.59
14:15:0016.40 °C1015.40 hPa82.00 %13.30 °C2.59
14:00:0016.80 °C1015.40 hPa83.00 %13.90 °C2.59
13:45:0015.80 °C1015.60 hPa86.00 %13.50 °C2.59
13:30:0014.90 °C1015.80 hPa83.00 %12.00 °C2.59
13:15:0015.30 °C1015.80 hPa82.00 %12.20 °C2.59
13:00:0016.10 °C1015.80 hPa80.00 %12.70 °C2.59
12:45:0017.40 °C1015.70 hPa78.00 %13.50 °C2.59
12:30:0017.30 °C1015.60 hPa84.00 %14.60 °C2.59
12:15:0016.00 °C1015.70 hPa86.00 %13.70 °C2.59
12:00:0015.90 °C1015.60 hPa88.00 %13.90 °C2.59
11:45:0015.90 °C1015.70 hPa90.00 %14.30 °C2.59
11:30:0015.10 °C1015.70 hPa92.00 %13.80 °C2.59
11:15:0014.30 °C1015.60 hPa93.00 %13.20 °C2.59
11:00:0013.30 °C1015.80 hPa93.00 %12.20 °C2.59
10:45:0012.90 °C1015.60 hPa93.00 %11.80 °C2.59
10:30:0012.50 °C1015.60 hPa93.00 %11.40 °C2.59
10:15:0012.50 °C1015.40 hPa93.00 %11.40 °C2.59
10:00:0012.50 °C1015.40 hPa93.00 %11.40 °C2.59
09:45:0012.50 °C1015.30 hPa93.00 %11.40 °C2.59
09:30:0012.40 °C1015.20 hPa93.00 %11.30 °C2.59
09:15:0012.40 °C1015.20 hPa93.00 %11.30 °C2.59
09:00:0012.40 °C1015.10 hPa93.00 %11.30 °C2.59
08:45:0012.30 °C1015.00 hPa93.00 %11.20 °C2.59
08:30:0012.20 °C1015.00 hPa93.00 %11.10 °C2.59
08:15:0012.20 °C1015.00 hPa93.00 %11.10 °C2.59
08:00:0012.20 °C1014.90 hPa93.00 %11.10 °C2.59
07:45:0012.10 °C1014.70 hPa93.00 %11.00 °C2.59
07:30:0012.00 °C1014.60 hPa93.00 %10.90 °C2.08
07:15:0011.90 °C1014.60 hPa92.00 %10.60 °C2.08
07:00:0011.90 °C1014.40 hPa93.00 %5.40 km/hSW11.80 °C10.80 °C2.08
06:45:0011.90 °C1014.50 hPa92.00 %10.60 °C2.08
06:30:0011.90 °C1014.70 hPa92.00 %10.60 °C2.08
06:15:0011.80 °C1014.70 hPa92.00 %10.50 °C2.08
06:00:0011.80 °C1014.60 hPa92.00 %10.50 °C2.08
05:45:0011.60 °C1014.60 hPa92.00 %10.30 °C2.08
05:30:0011.60 °C1014.60 hPa92.00 %10.30 °C2.08
05:15:0011.80 °C1014.50 hPa92.00 %10.50 °C2.08
05:00:0011.80 °C1014.60 hPa92.00 %10.50 °C2.08
04:45:0011.80 °C1014.60 hPa92.00 %10.50 °C2.08
04:30:0011.80 °C1014.60 hPa92.00 %10.50 °C2.08
04:15:0011.70 °C1014.60 hPa92.00 %10.40 °C2.08
04:00:0011.60 °C1014.60 hPa92.00 %10.30 °C2.08
03:45:0011.80 °C1014.50 hPa92.00 %10.50 °C1.04
03:30:0012.00 °C1014.50 hPa92.00 %10.70 °C0.52
03:15:0012.10 °C1014.40 hPa92.00 %10.80 °C 
03:00:0012.20 °C1014.40 hPa92.00 %10.90 °C 
02:45:0012.20 °C1014.40 hPa92.00 %10.90 °C 
02:30:0012.10 °C1014.80 hPa92.00 %10.80 °C 
02:15:0012.10 °C1014.90 hPa91.00 %10.70 °C 
02:00:0012.10 °C1015.00 hPa91.00 %10.70 °C 
01:45:0012.00 °C1015.00 hPa91.00 %10.60 °C 
01:30:0012.10 °C1015.10 hPa91.00 %10.70 °C 
01:15:0012.10 °C1015.20 hPa91.00 %10.70 °C 
01:00:0012.10 °C1015.40 hPa91.00 %10.70 °C 
00:45:0012.20 °C1015.80 hPa91.00 %10.80 °C 
00:30:0012.30 °C1015.80 hPa90.00 %8.64 km/hW11.60 °C10.70 °C 
00:15:0012.40 °C1015.90 hPa90.00 %10.80 °C 
00:00:0012.50 °C1015.90 hPa90.00 %10.90 °C 

Permanenter Link zu dieser Seite: Wetter im Erzgebirge am 13.07.2015
Performance-Info: Die Erstellung der Seite / Statistik(en) / Tabelle(n) erforderte 5 Datenbankserver-Abfrage(n) und dauerte 124 Millisekunden. (Dieser Messwert ist von der Gesamt-Auslastung des Servers abhängig.)
Erzgebirge - Wetter | Erzgebirge - Wetter (Mobilgeräte) | Komplette Klimadatenbank